createdAt,value
2022-11-24T00:00:02.151Z,100726.84
2022-11-24T00:00:15.702Z,100729.53
2022-11-24T00:00:36.581Z,100733.91
2022-11-24T00:01:12.559Z,100729.53
2022-11-24T00:01:27.040Z,100726.91
2022-11-24T00:01:39.824Z,100732.97
2022-11-24T00:01:52.695Z,100732.06
2022-11-24T00:02:06.703Z,100727.69
2022-11-24T00:02:19.649Z,100726.78
2022-11-24T00:02:32.652Z,100731.13
2022-11-24T00:02:45.628Z,100735.44
2022-11-24T00:02:58.477Z,100733.75
2022-11-24T00:03:11.513Z,100734.53
2022-11-24T00:03:24.608Z,100738.03
2022-11-24T00:03:39.197Z,100728.31
2022-11-24T00:03:56.607Z,100733.59
2022-11-24T00:04:12.123Z,100735.31
2022-11-24T00:04:24.992Z,100730.88
2022-11-24T00:04:37.785Z,100731.75
2022-11-24T00:04:50.631Z,100736.16
2022-11-24T00:05:04.495Z,100739.59
2022-11-24T00:05:17.642Z,100735.16
2022-11-24T00:05:30.362Z,100735.16
2022-11-24T00:05:43.176Z,100740.44
2022-11-24T00:05:55.928Z,100733.47
2022-11-24T00:06:11.111Z,100729.03
2022-11-24T00:06:25.314Z,100736.91
2022-11-24T00:06:38.359Z,100732.53
2022-11-24T00:06:51.114Z,100733.47
2022-11-24T00:07:03.858Z,100738.75
2022-11-24T00:07:16.705Z,100732.63
2022-11-24T00:07:29.618Z,100736.16
2022-11-24T00:07:42.721Z,100733.59
2022-11-24T00:07:55.609Z,100739.81
2022-11-24T00:08:09.234Z,100737.19
2022-11-24T00:08:23.708Z,100735.44
2022-11-24T00:08:37.471Z,100734.59
2022-11-24T00:08:50.761Z,100737.25
2022-11-24T00:09:05.153Z,100727.53
2022-11-24T00:09:18.183Z,100735.44
2022-11-24T00:09:30.938Z,100730.25
2022-11-24T00:09:44.785Z,100729.31
2022-11-24T00:09:57.613Z,100729.31
2022-11-24T00:10:10.672Z,100733.75
2022-11-24T00:10:23.582Z,100729.31
2022-11-24T00:10:37.813Z,100733.69
2022-11-24T00:10:50.528Z,100735.44
2022-11-24T00:11:05.564Z,100730.16
2022-11-24T00:11:22.240Z,100730.16
2022-11-24T00:11:36.802Z,100731.91
2022-11-24T00:11:49.600Z,100726.63
2022-11-24T00:12:03.142Z,100727.47
2022-11-24T00:12:15.909Z,100723.97
2022-11-24T00:12:28.746Z,100723.13
2022-11-24T00:12:41.668Z,100731.91
2022-11-24T00:12:54.490Z,100732.75
2022-11-24T00:13:08.523Z,100727.47
2022-11-24T00:13:21.366Z,100725.66
2022-11-24T00:13:34.841Z,100729.19
2022-11-24T00:13:48.055Z,100733.59
2022-11-24T00:14:02.071Z,100733.53
2022-11-24T00:14:14.899Z,100733.47
2022-11-24T00:14:28.956Z,100735.16
2022-11-24T00:14:41.857Z,100728.19
2022-11-24T00:14:54.585Z,100729.88
2022-11-24T00:15:08.107Z,100729.03
2022-11-24T00:15:21.862Z,100731.63
2022-11-24T00:15:34.599Z,100722.91
2022-11-24T00:15:47.405Z,100725.56
2022-11-24T00:16:12.059Z,100729.03
2022-11-24T00:16:27.847Z,100722.91
2022-11-24T00:16:40.888Z,100727.25
2022-11-24T00:16:54.104Z,100724.59
2022-11-24T00:17:07.225Z,100730.78
2022-11-24T00:17:20.045Z,100722.84
2022-11-24T00:17:33.150Z,100725.50
2022-11-24T00:17:45.892Z,100721.13
2022-11-24T00:17:58.688Z,100725.50
2022-11-24T00:18:12.502Z,100723.75
2022-11-24T00:18:25.289Z,100721.97
2022-11-24T00:18:38.674Z,100723.75
2022-11-24T00:18:53.365Z,100729.03
2022-11-24T00:19:09.306Z,100733.47
2022-11-24T00:19:23.275Z,100732.53
2022-11-24T00:19:36.126Z,100728.19
2022-11-24T00:19:48.909Z,100721.19
2022-11-24T00:20:01.847Z,100725.63
2022-11-24T00:20:15.000Z,100732.63
2022-11-24T00:20:27.805Z,100732.63
2022-11-24T00:20:40.578Z,100722.97
2022-11-24T00:20:53.682Z,100737.03
2022-11-24T00:21:07.206Z,100737.03
2022-11-24T00:21:22.466Z,100731.75
2022-11-24T00:21:37.073Z,100737.03
2022-11-24T00:21:49.866Z,100735.16
2022-11-24T00:22:02.762Z,100741.31
2022-11-24T00:22:15.552Z,100731.75
2022-11-24T00:22:28.268Z,100737.91
2022-11-24T00:22:42.308Z,100737.03
2022-11-24T00:22:56.073Z,100737.03
2022-11-24T00:23:08.853Z,100737.03
2022-11-24T00:23:21.812Z,100744.16
2022-11-24T00:23:35.130Z,100738.88
2022-11-24T00:23:49.308Z,100731.91
2022-11-24T00:24:02.633Z,100742.47
2022-11-24T00:24:16.559Z,100741.59
2022-11-24T00:24:29.289Z,100745.09
2022-11-24T00:24:42.017Z,100737.19
2022-11-24T00:24:55.057Z,100741.59
2022-11-24T00:25:08.335Z,100737.19
2022-11-24T00:25:21.109Z,100737.19
2022-11-24T00:25:33.861Z,100739.88
2022-11-24T00:25:48.122Z,100744.31
2022-11-24T00:26:06.877Z,100739.03
2022-11-24T00:26:21.922Z,100737.34
2022-11-24T00:26:37.509Z,100744.31
2022-11-24T00:26:51.452Z,100739.97
2022-11-24T00:27:04.411Z,100739.03
2022-11-24T00:27:17.387Z,100744.31
2022-11-24T00:27:30.131Z,100752.22
2022-11-24T00:27:43.097Z,100745.16
2022-11-24T00:27:55.870Z,100743.38
2022-11-24T00:28:08.630Z,100740.72
2022-11-24T00:28:21.401Z,100740.66
2022-11-24T00:28:34.892Z,100742.47
2022-11-24T00:28:49.949Z,100742.47
2022-11-24T00:29:05.278Z,100744.16
2022-11-24T00:29:18.301Z,100738.03
2022-11-24T00:29:31.158Z,100741.44
2022-11-24T00:29:44.058Z,100744.94
2022-11-24T00:29:57.834Z,100744.03
2022-11-24T00:30:12.494Z,100739.75
2022-11-24T00:30:25.706Z,100742.31
2022-11-24T00:30:38.624Z,100739.66
2022-11-24T00:30:51.492Z,100744.03
2022-11-24T00:31:08.082Z,100741.38
2022-11-24T00:31:23.793Z,100741.38
2022-11-24T00:31:38.127Z,100737.03
2022-11-24T00:31:51.993Z,100749.31
2022-11-24T00:32:06.675Z,100749.31
2022-11-24T00:32:19.467Z,100739.66
2022-11-24T00:32:32.233Z,100747.50
2022-11-24T00:32:44.987Z,100744.94
2022-11-24T00:32:57.787Z,100744.09
2022-11-24T00:33:10.618Z,100745.88
2022-11-24T00:33:23.361Z,100736.22
2022-11-24T00:33:37.080Z,100744.16
2022-11-24T00:33:52.366Z,100735.44
2022-11-24T00:34:07.220Z,100742.47
2022-11-24T00:34:20.035Z,100738.09
2022-11-24T00:34:33.423Z,100744.31
2022-11-24T00:34:47.445Z,100739.03
2022-11-24T00:35:00.169Z,100742.50
2022-11-24T00:35:12.976Z,100738.09
2022-11-24T00:35:26.743Z,100740.72
2022-11-24T00:35:39.585Z,100736.38
2022-11-24T00:35:55.750Z,100744.31
2022-11-24T00:36:08.849Z,100739.03
2022-11-24T00:36:23.696Z,100735.59
2022-11-24T00:36:38.291Z,100744.38
2022-11-24T00:36:51.030Z,100741.81
2022-11-24T00:37:03.851Z,100740.03
2022-11-24T00:37:16.562Z,100738.31
2022-11-24T00:37:29.403Z,100739.19
2022-11-24T00:37:42.246Z,100740.03
2022-11-24T00:37:56.246Z,100741.81
2022-11-24T00:38:10.038Z,100743.53
2022-11-24T00:38:22.819Z,100745.31
2022-11-24T00:38:35.635Z,100740.88
2022-11-24T00:38:48.838Z,100746.09
2022-11-24T00:39:03.669Z,100734.69
2022-11-24T00:39:17.364Z,100735.59
2022-11-24T00:39:30.390Z,100737.34
2022-11-24T00:39:44.122Z,100738.19
2022-11-24T00:39:56.911Z,100742.50
2022-11-24T00:40:10.207Z,100742.47
2022-11-24T00:40:23.041Z,100742.47
2022-11-24T00:40:35.962Z,100744.31
2022-11-24T00:40:50.195Z,100746.00
2022-11-24T00:41:02.959Z,100740.72
2022-11-24T00:41:15.751Z,100740.72
2022-11-24T00:41:30.645Z,100739.03
2022-11-24T00:41:44.007Z,100740.72
2022-11-24T00:41:56.837Z,100738.09
2022-11-24T00:42:09.565Z,100738.09
2022-11-24T00:42:22.257Z,100733.75
2022-11-24T00:42:34.966Z,100743.38
2022-11-24T00:42:48.157Z,100742.47
2022-11-24T00:43:00.900Z,100741.59
2022-11-24T00:43:13.644Z,100741.59
2022-11-24T00:43:27.437Z,100739.81
2022-11-24T00:43:40.348Z,100733.59
2022-11-24T00:43:53.700Z,100739.81
2022-11-24T00:44:07.001Z,100738.03
2022-11-24T00:44:19.767Z,100735.44
2022-11-24T00:44:32.592Z,100738.19
2022-11-24T00:44:46.482Z,100738.19
2022-11-24T00:44:59.263Z,100737.34
2022-11-24T00:45:14.137Z,100742.59
2022-11-24T00:45:27.170Z,100741.81
2022-11-24T00:45:40.006Z,100736.59
2022-11-24T00:45:53.039Z,100736.59
2022-11-24T00:46:06.414Z,100739.31
2022-11-24T00:46:21.105Z,100748.06
2022-11-24T00:46:34.833Z,100748.16
2022-11-24T00:46:47.870Z,100735.88
2022-11-24T00:47:00.891Z,100740.31
2022-11-24T00:47:14.027Z,100739.47
2022-11-24T00:47:28.867Z,100733.25
2022-11-24T00:47:41.558Z,100742.88
2022-11-24T00:47:55.307Z,100734.09
2022-11-24T00:48:08.126Z,100739.38
2022-11-24T00:48:21.074Z,100738.47
2022-11-24T00:48:34.152Z,100735.81
2022-11-24T00:48:46.953Z,100733.19
2022-11-24T00:49:00.526Z,100736.72
2022-11-24T00:49:14.260Z,100732.34
2022-11-24T00:49:27.411Z,100732.34
2022-11-24T00:49:40.091Z,100737.59
2022-11-24T00:49:52.854Z,100732.34
2022-11-24T00:50:06.536Z,100735.81
2022-11-24T00:50:20.190Z,100733.19
2022-11-24T00:50:32.959Z,100736.72
2022-11-24T00:50:45.718Z,100737.59
2022-11-24T00:51:00.951Z,100737.59
2022-11-24T00:51:15.896Z,100734.88
2022-11-24T00:51:30.494Z,100735.75
2022-11-24T00:51:43.296Z,100735.75
2022-11-24T00:51:56.013Z,100735.75
2022-11-24T00:52:09.784Z,100737.44
2022-11-24T00:52:22.565Z,100736.53
2022-11-24T00:52:35.270Z,100737.44
2022-11-24T00:52:48.341Z,100736.59
2022-11-24T00:53:01.144Z,100731.25
2022-11-24T00:53:13.827Z,100736.53
2022-11-24T00:53:26.972Z,100737.41
2022-11-24T00:53:40.063Z,100734.75
2022-11-24T00:53:54.408Z,100729.47
2022-11-24T00:54:07.178Z,100735.59
2022-11-24T00:54:20.042Z,100734.69
2022-11-24T00:54:32.977Z,100737.34
2022-11-24T00:54:45.796Z,100733.75
2022-11-24T00:54:58.581Z,100739.03
2022-11-24T00:55:11.308Z,100736.38
2022-11-24T00:55:25.112Z,100739.03
2022-11-24T00:55:37.864Z,100734.69
2022-11-24T00:55:52.948Z,100737.34
2022-11-24T00:56:06.579Z,100733.75
2022-11-24T00:56:19.506Z,100735.44
2022-11-24T00:56:32.509Z,100739.03
2022-11-24T00:56:46.276Z,100732.81
2022-11-24T00:56:59.055Z,100732.81
2022-11-24T00:57:12.121Z,100738.88
2022-11-24T00:57:24.997Z,100738.03
2022-11-24T00:57:37.783Z,100740.66
2022-11-24T00:57:50.648Z,100732.69
2022-11-24T00:58:03.434Z,100741.44
2022-11-24T00:58:16.216Z,100740.59
2022-11-24T00:58:29.940Z,100732.69
2022-11-24T00:58:42.912Z,100731.75
2022-11-24T00:58:56.771Z,100737.03
2022-11-24T00:59:09.942Z,100738.75
2022-11-24T00:59:22.676Z,100731.69
2022-11-24T00:59:36.429Z,100729.88
2022-11-24T00:59:49.150Z,100734.25
2022-11-24T01:00:01.948Z,100737.75
2022-11-24T01:00:15.712Z,100735.09
2022-11-24T01:00:28.425Z,100735.03
2022-11-24T01:00:41.184Z,100736.75
2022-11-24T01:00:53.925Z,100739.31
2022-11-24T01:01:10.602Z,100736.69
2022-11-24T01:01:25.346Z,100737.53
2022-11-24T01:01:39.104Z,100740.16
2022-11-24T01:01:52.186Z,100732.25
2022-11-24T01:02:04.994Z,100741.88
2022-11-24T01:02:17.849Z,100745.38
2022-11-24T01:02:30.682Z,100749.81
2022-11-24T01:02:43.638Z,100747.16
2022-11-24T01:02:57.556Z,100744.53
2022-11-24T01:03:10.751Z,100746.22
2022-11-24T01:03:23.441Z,100746.22
2022-11-24T01:03:36.337Z,100743.59
2022-11-24T01:03:49.282Z,100745.31
2022-11-24T01:04:02.301Z,100746.16
2022-11-24T01:04:16.267Z,100742.69
2022-11-24T01:04:29.031Z,100742.69
2022-11-24T01:04:41.822Z,100743.53
2022-11-24T01:04:54.869Z,100749.66
2022-11-24T01:05:08.464Z,100746.94
2022-11-24T01:05:21.269Z,100745.16
2022-11-24T01:05:36.668Z,100749.59
2022-11-24T01:05:50.555Z,100747.81
2022-11-24T01:06:04.882Z,100753.03
2022-11-24T01:06:19.564Z,100746.84
2022-11-24T01:06:32.896Z,100751.22
2022-11-24T01:06:45.998Z,100746.84
2022-11-24T01:06:59.777Z,100748.59
2022-11-24T01:07:12.709Z,100751.22
2022-11-24T01:07:25.543Z,100748.59
2022-11-24T01:07:38.499Z,100745.00
2022-11-24T01:07:51.256Z,100746.78
2022-11-24T01:08:04.185Z,100742.38
2022-11-24T01:08:17.369Z,100747.66
2022-11-24T01:08:30.166Z,100749.44
2022-11-24T01:08:44.602Z,100755.56
2022-11-24T01:08:58.076Z,100745.88
2022-11-24T01:09:11.503Z,100752.00
2022-11-24T01:09:24.323Z,100747.59
2022-11-24T01:09:37.901Z,100746.72
2022-11-24T01:09:50.710Z,100747.59
2022-11-24T01:10:05.182Z,100743.25
2022-11-24T01:10:18.128Z,100752.00
2022-11-24T01:10:31.995Z,100746.72
2022-11-24T01:10:44.767Z,100753.72
2022-11-24T01:11:09.015Z,100749.31
2022-11-24T01:11:24.393Z,100751.06
2022-11-24T01:11:52.073Z,100759.88
2022-11-24T01:12:06.011Z,100757.22
2022-11-24T01:12:18.784Z,100755.50
2022-11-24T01:12:32.425Z,100752.88
2022-11-24T01:12:45.130Z,100752.00
2022-11-24T01:12:58.123Z,100757.28
2022-11-24T01:13:12.703Z,100756.50
2022-11-24T01:13:25.446Z,100757.28
2022-11-24T01:13:38.838Z,100747.66
2022-11-24T01:13:54.772Z,100749.44
2022-11-24T01:14:07.552Z,100754.72
2022-11-24T01:14:21.448Z,100751.22
2022-11-24T01:14:34.412Z,100746.78
2022-11-24T01:14:47.274Z,100750.28
2022-11-24T01:15:00.035Z,100751.16
2022-11-24T01:15:12.777Z,100743.31
2022-11-24T01:15:26.640Z,100752.00
2022-11-24T01:15:40.480Z,100752.00
2022-11-24T01:15:53.383Z,100747.59
2022-11-24T01:16:06.644Z,100748.44
2022-11-24T01:16:22.569Z,100745.78
2022-11-24T01:16:35.793Z,100742.25
2022-11-24T01:16:50.014Z,100746.56
2022-11-24T01:17:02.717Z,100747.53
2022-11-24T01:17:15.507Z,100741.28
2022-11-24T01:17:28.228Z,100747.47
2022-11-24T01:17:41.007Z,100747.47
2022-11-24T01:17:53.964Z,100748.44
2022-11-24T01:18:08.297Z,100752.81
2022-11-24T01:18:21.052Z,100744.09
2022-11-24T01:18:34.088Z,100747.59
2022-11-24T01:18:47.282Z,100736.16
2022-11-24T01:19:00.755Z,100747.59
2022-11-24T01:19:13.537Z,100745.00
2022-11-24T01:19:26.336Z,100747.66
2022-11-24T01:19:40.078Z,100745.16
2022-11-24T01:19:53.164Z,100751.28
2022-11-24T01:20:07.020Z,100748.59
2022-11-24T01:20:19.776Z,100747.75
2022-11-24T01:20:32.547Z,100739.88
2022-11-24T01:20:45.358Z,100742.47
2022-11-24T01:20:58.164Z,100750.44
2022-11-24T01:21:11.003Z,100750.44
2022-11-24T01:21:25.092Z,100742.59
2022-11-24T01:21:37.881Z,100746.16
2022-11-24T01:21:50.702Z,100740.88
2022-11-24T01:22:03.456Z,100751.50
2022-11-24T01:22:16.478Z,100745.31
2022-11-24T01:22:29.661Z,100744.53
2022-11-24T01:22:42.472Z,100744.53
2022-11-24T01:22:56.176Z,100743.59
2022-11-24T01:23:08.865Z,100745.38
2022-11-24T01:23:21.612Z,100740.09
2022-11-24T01:23:34.481Z,100743.66
2022-11-24T01:23:47.225Z,100746.28
2022-11-24T01:23:59.991Z,100747.16
2022-11-24T01:24:14.247Z,100749.81
2022-11-24T01:24:27.310Z,100748.09
2022-11-24T01:24:40.107Z,100748.94
2022-11-24T01:24:52.883Z,100748.09
2022-11-24T01:25:06.427Z,100746.38
2022-11-24T01:25:19.284Z,100745.44
2022-11-24T01:25:32.078Z,100744.53
2022-11-24T01:25:45.842Z,100746.22
2022-11-24T01:25:58.620Z,100748.88
2022-11-24T01:26:14.556Z,100738.31
2022-11-24T01:26:27.269Z,100743.59
2022-11-24T01:26:40.329Z,100746.28
2022-11-24T01:26:53.023Z,100740.16
2022-11-24T01:27:05.838Z,100745.44
2022-11-24T01:27:19.562Z,100747.22
2022-11-24T01:27:32.417Z,100747.28
2022-11-24T01:27:45.252Z,100743.81
2022-11-24T01:27:57.961Z,100743.81
2022-11-24T01:28:10.746Z,100747.28
2022-11-24T01:28:23.473Z,100745.59
2022-11-24T01:28:37.029Z,100745.59
2022-11-24T01:28:55.148Z,100749.16
2022-11-24T01:29:08.497Z,100742.19
2022-11-24T01:29:21.282Z,100748.38
2022-11-24T01:29:34.166Z,100752.72
2022-11-24T01:29:46.988Z,100746.59
2022-11-24T01:29:59.725Z,100750.09
2022-11-24T01:30:12.631Z,100740.44
2022-11-24T01:30:25.400Z,100743.97
2022-11-24T01:30:38.196Z,100748.31
2022-11-24T01:30:58.687Z,100739.59
2022-11-24T01:31:12.157Z,100740.44
2022-11-24T01:31:26.064Z,100745.72
2022-11-24T01:31:39.003Z,100740.44
2022-11-24T01:31:52.908Z,100744.88
2022-11-24T01:32:05.725Z,100738.69
2022-11-24T01:32:18.588Z,100737.81
2022-11-24T01:32:33.314Z,100742.19
2022-11-24T01:32:46.054Z,100741.31
2022-11-24T01:32:58.760Z,100744.03
2022-11-24T01:33:11.477Z,100744.03
2022-11-24T01:33:24.558Z,100739.66
2022-11-24T01:33:38.771Z,100737.97
2022-11-24T01:33:51.769Z,100744.16
2022-11-24T01:34:04.531Z,100740.72
2022-11-24T01:34:17.285Z,100739.03
2022-11-24T01:34:30.276Z,100744.31
2022-11-24T01:34:43.342Z,100739.03
2022-11-24T01:34:57.467Z,100743.47
2022-11-24T01:35:10.539Z,100735.59
2022-11-24T01:35:23.321Z,100743.47
2022-11-24T01:35:36.886Z,100737.34
2022-11-24T01:35:49.630Z,100746.09
2022-11-24T01:36:02.758Z,100741.72
2022-11-24T01:36:16.652Z,100736.44
2022-11-24T01:36:29.527Z,100743.53
2022-11-24T01:36:42.292Z,100744.38
2022-11-24T01:36:54.997Z,100746.16
2022-11-24T01:37:07.742Z,100742.59
2022-11-24T01:37:20.460Z,100744.31
2022-11-24T01:37:33.445Z,100740.72
2022-11-24T01:37:47.444Z,100740.72
2022-11-24T01:38:00.328Z,100745.09
2022-11-24T01:38:13.010Z,100744.25
2022-11-24T01:38:26.324Z,100745.16
2022-11-24T01:38:39.019Z,100744.31
2022-11-24T01:38:51.999Z,100742.59
2022-11-24T01:39:04.851Z,100739.03
2022-11-24T01:39:18.608Z,100740.72
2022-11-24T01:39:31.348Z,100743.38
2022-11-24T01:39:44.066Z,100742.50
2022-11-24T01:39:56.944Z,100743.38
2022-11-24T01:40:11.218Z,100742.50
2022-11-24T01:40:24.019Z,100740.72
2022-11-24T01:40:36.743Z,100744.31
2022-11-24T01:40:50.843Z,100742.59
2022-11-24T01:41:06.412Z,100739.03
2022-11-24T01:41:22.281Z,100738.09
2022-11-24T01:41:36.025Z,100744.31
2022-11-24T01:41:48.814Z,100746.00
2022-11-24T01:42:01.943Z,100743.31
2022-11-24T01:42:15.168Z,100744.16
2022-11-24T01:42:37.749Z,100745.88
2022-11-24T01:42:53.504Z,100743.25
2022-11-24T01:43:17.290Z,100751.16
2022-11-24T01:43:30.107Z,100741.50
2022-11-24T01:43:44.666Z,100742.47
2022-11-24T01:43:57.874Z,100747.72
2022-11-24T01:44:22.559Z,100742.50
2022-11-24T01:44:36.639Z,100745.25
2022-11-24T01:45:12.393Z,100749.75
2022-11-24T01:45:37.104Z,100745.38
2022-11-24T01:45:51.132Z,100749.81
2022-11-24T01:46:15.004Z,100747.16
2022-11-24T01:46:32.604Z,100746.31
2022-11-24T01:46:48.354Z,100745.44
2022-11-24T01:47:06.196Z,100748.06
2022-11-24T01:47:34.280Z,100743.66
2022-11-24T01:47:48.101Z,100747.09
2022-11-24T01:48:05.963Z,100746.16
2022-11-24T01:48:27.274Z,100747.88
2022-11-24T01:48:44.871Z,100755.81
2022-11-24T01:49:04.909Z,100746.16
2022-11-24T01:49:22.049Z,100753.22
2022-11-24T01:49:39.840Z,100748.78
2022-11-24T01:49:55.207Z,100749.75
2022-11-24T01:50:16.714Z,100752.38
2022-11-24T01:50:29.507Z,100745.38
2022-11-24T01:50:44.609Z,100751.59
2022-11-24T01:51:06.762Z,100752.50
2022-11-24T01:51:24.571Z,100749.88
2022-11-24T01:51:42.330Z,100749.88
2022-11-24T01:52:00.804Z,100749.00
2022-11-24T01:52:17.225Z,100746.31
2022-11-24T01:52:35.224Z,100749.88
2022-11-24T01:52:51.692Z,100747.16
2022-11-24T01:53:05.215Z,100749.81
2022-11-24T01:53:18.034Z,100746.31
2022-11-24T01:53:32.108Z,100751.59
2022-11-24T01:53:49.456Z,100745.44
2022-11-24T01:54:08.073Z,100750.81
2022-11-24T01:54:25.371Z,100751.59
2022-11-24T01:54:41.658Z,100749.00
2022-11-24T01:54:58.244Z,100744.59
2022-11-24T01:55:18.389Z,100746.31
2022-11-24T01:55:35.075Z,100753.34
2022-11-24T01:55:48.272Z,100746.31
2022-11-24T01:56:01.020Z,100746.31
2022-11-24T01:56:14.460Z,100752.44
2022-11-24T01:56:31.365Z,100750.59
2022-11-24T01:56:49.005Z,100750.59
2022-11-24T01:57:05.988Z,100751.44
2022-11-24T01:57:25.123Z,100747.88
2022-11-24T01:57:42.621Z,100754.88
2022-11-24T01:58:00.060Z,100752.22
2022-11-24T01:58:16.914Z,100754.03
2022-11-24T01:58:34.143Z,100749.59
2022-11-24T01:58:49.028Z,100755.59
2022-11-24T01:59:04.079Z,100749.44
2022-11-24T01:59:19.684Z,100747.66
2022-11-24T01:59:33.227Z,100758.22
2022-11-24T01:59:50.045Z,100752.06
2022-11-24T02:00:06.943Z,100754.72
2022-11-24T02:00:19.940Z,100752.06
2022-11-24T02:00:34.832Z,100757.34
2022-11-24T02:00:47.960Z,100756.50
2022-11-24T02:01:00.964Z,100756.50
2022-11-24T02:01:14.968Z,100753.00
2022-11-24T02:01:29.403Z,100755.66
2022-11-24T02:01:42.346Z,100753.00
2022-11-24T02:01:57.022Z,100755.59
2022-11-24T02:02:11.038Z,100758.22
2022-11-24T02:02:24.771Z,100753.88
2022-11-24T02:02:39.596Z,100754.72
2022-11-24T02:02:53.694Z,100752.06
2022-11-24T02:03:07.233Z,100760.00
2022-11-24T02:03:24.193Z,100761.72
2022-11-24T02:03:40.407Z,100754.72
2022-11-24T02:03:53.586Z,100760.78
2022-11-24T02:04:12.156Z,100757.28
2022-11-24T02:04:29.551Z,100759.03
2022-11-24T02:04:43.803Z,100754.59
2022-11-24T02:04:59.129Z,100761.56
2022-11-24T02:05:18.194Z,100756.28
2022-11-24T02:05:35.647Z,100757.16
2022-11-24T02:05:58.703Z,100760.66
2022-11-24T02:06:14.431Z,100755.31
2022-11-24T02:06:29.659Z,100751.72
2022-11-24T02:06:45.476Z,100756.16
2022-11-24T02:07:01.782Z,100752.56
2022-11-24T02:07:16.381Z,100760.44
2022-11-24T02:07:29.638Z,100757.72
2022-11-24T02:07:42.570Z,100757.72
2022-11-24T02:07:59.537Z,100746.28
2022-11-24T02:08:19.613Z,100748.16
2022-11-24T02:08:41.212Z,100749.88
2022-11-24T02:08:59.983Z,100746.28
2022-11-24T02:09:19.991Z,100750.72
2022-11-24T02:09:37.782Z,100745.44
2022-11-24T02:09:55.630Z,100748.09
2022-11-24T02:10:13.027Z,100748.03
2022-11-24T02:10:26.803Z,100748.88
2022-11-24T02:10:39.722Z,100748.03
2022-11-24T02:10:52.527Z,100751.50
2022-11-24T02:11:06.046Z,100749.72
2022-11-24T02:11:21.300Z,100751.50
2022-11-24T02:11:38.645Z,100748.03
2022-11-24T02:11:53.696Z,100749.81
2022-11-24T02:12:07.189Z,100747.16
2022-11-24T02:12:20.430Z,100747.22
2022-11-24T02:12:34.003Z,100748.16
2022-11-24T02:12:49.217Z,100739.38
2022-11-24T02:13:03.229Z,100742.97
2022-11-24T02:13:16.479Z,100741.16
2022-11-24T02:13:29.580Z,100739.47
2022-11-24T02:13:43.750Z,100749.88
2022-11-24T02:13:57.890Z,100749.03
2022-11-24T02:14:15.004Z,100742.00
2022-11-24T02:14:28.316Z,100745.59
2022-11-24T02:14:43.658Z,100738.59
2022-11-24T02:14:56.991Z,100742.19
2022-11-24T02:15:11.950Z,100744.81
2022-11-24T02:15:25.470Z,100742.19
2022-11-24T02:15:38.442Z,100747.47
2022-11-24T02:15:54.379Z,100741.38
2022-11-24T02:16:10.641Z,100744.81
2022-11-24T02:16:23.927Z,100740.44
2022-11-24T02:16:37.747Z,100746.50
2022-11-24T02:16:51.742Z,100740.31
2022-11-24T02:17:04.467Z,100740.31
2022-11-24T02:17:18.271Z,100743.81
2022-11-24T02:17:31.090Z,100738.59
2022-11-24T02:17:44.238Z,100741.22
2022-11-24T02:17:59.406Z,100741.22
2022-11-24T02:18:12.266Z,100735.94
2022-11-24T02:18:25.021Z,100735.16
2022-11-24T02:18:38.911Z,100745.72
2022-11-24T02:18:52.145Z,100742.31
2022-11-24T02:19:14.107Z,100737.03
2022-11-24T02:19:37.746Z,100739.75
2022-11-24T02:19:55.880Z,100738.88
2022-11-24T02:20:10.888Z,100737.19
2022-11-24T02:20:23.722Z,100744.16
2022-11-24T02:20:38.241Z,100745.09
2022-11-24T02:20:51.184Z,100742.47
2022-11-24T02:21:04.872Z,100740.72
2022-11-24T02:21:18.294Z,100743.38
2022-11-24T02:21:30.988Z,100742.50
2022-11-24T02:21:43.734Z,100741.66
2022-11-24T02:21:56.404Z,100737.34
2022-11-24T02:22:14.536Z,100746.09
2022-11-24T02:22:40.290Z,100739.97
2022-11-24T02:23:00.628Z,100744.31
2022-11-24T02:23:20.182Z,100745.16
2022-11-24T02:23:44.170Z,100736.31
2022-11-24T02:24:03.671Z,100735.31
2022-11-24T02:24:24.349Z,100735.31
2022-11-24T02:24:46.053Z,100740.59
2022-11-24T02:25:06.846Z,100740.59
2022-11-24T02:25:28.983Z,100740.59
2022-11-24T02:25:50.592Z,100741.44
2022-11-24T02:26:10.302Z,100734.47
2022-11-24T02:26:34.560Z,100738.88
2022-11-24T02:26:52.020Z,100739.88
2022-11-24T02:27:04.662Z,100743.47
2022-11-24T02:27:17.512Z,100738.25
2022-11-24T02:27:30.854Z,100744.47
2022-11-24T02:27:48.197Z,100741.81
2022-11-24T02:28:08.653Z,100734.03
2022-11-24T02:28:23.564Z,100740.09
2022-11-24T02:28:37.449Z,100741.03
2022-11-24T02:28:50.350Z,100746.31
2022-11-24T02:29:03.118Z,100736.59
2022-11-24T02:29:16.149Z,100741.88
2022-11-24T02:29:28.780Z,100742.78
2022-11-24T02:29:41.697Z,100739.31
2022-11-24T02:29:55.330Z,100741.09
2022-11-24T02:30:08.583Z,100742.88
2022-11-24T02:30:21.229Z,100739.38
2022-11-24T02:30:34.224Z,100737.59
2022-11-24T02:30:47.787Z,100741.16
2022-11-24T02:31:01.940Z,100740.31
2022-11-24T02:31:14.662Z,100739.47
2022-11-24T02:31:29.058Z,100744.75
2022-11-24T02:31:47.607Z,100738.63
2022-11-24T02:32:05.761Z,100739.53
2022-11-24T02:32:19.984Z,100736.03
2022-11-24T02:32:33.931Z,100741.31
2022-11-24T02:32:46.795Z,100738.69
2022-11-24T02:33:00.969Z,100730.75
2022-11-24T02:33:14.117Z,100735.19
2022-11-24T02:33:27.282Z,100734.31
2022-11-24T02:33:40.891Z,100737.81
2022-11-24T02:33:54.909Z,100734.31
2022-11-24T02:34:07.537Z,100731.66
2022-11-24T02:34:20.536Z,100734.31
2022-11-24T02:34:33.453Z,100729.97
2022-11-24T02:34:47.245Z,100737.03
2022-11-24T02:35:01.438Z,100737.88
2022-11-24T02:35:14.799Z,100736.16
2022-11-24T02:35:28.219Z,100743.28
2022-11-24T02:35:41.218Z,100734.53
2022-11-24T02:35:53.899Z,100738.00
2022-11-24T02:36:07.329Z,100737.16
2022-11-24T02:36:20.927Z,100737.16
2022-11-24T02:36:33.562Z,100738.00
2022-11-24T02:36:46.149Z,100739.75
2022-11-24T02:36:58.739Z,100738.78
2022-11-24T02:37:11.707Z,100730.88
2022-11-24T02:37:24.330Z,100736.16
2022-11-24T02:37:36.869Z,100738.78
2022-11-24T02:37:50.472Z,100733.59
2022-11-24T02:38:03.164Z,100738.00
2022-11-24T02:38:15.862Z,100733.59
2022-11-24T02:38:31.447Z,100738.88
2022-11-24T02:38:44.031Z,100733.59
2022-11-24T02:38:56.643Z,100737.16
2022-11-24T02:39:11.357Z,100735.38
2022-11-24T02:39:24.939Z,100735.47
2022-11-24T02:39:37.558Z,100733.66
2022-11-24T02:39:50.146Z,100728.41
2022-11-24T02:40:02.757Z,100729.34
2022-11-24T02:40:16.565Z,100741.59
2022-11-24T02:40:31.017Z,100736.31
2022-11-24T02:40:47.969Z,100731.88
2022-11-24T02:41:04.964Z,100732.72
2022-11-24T02:41:20.295Z,100734.47
2022-11-24T02:41:34.325Z,100730.88
2022-11-24T02:41:52.280Z,100734.47
2022-11-24T02:42:08.476Z,100741.53
2022-11-24T02:42:21.545Z,100734.47
2022-11-24T02:42:38.377Z,100739.75
2022-11-24T02:42:54.853Z,100741.44